Time;durP1;ratioP1;P1;durP2;ratioP2;P2;SDS_P1;SDS_P2;PMS_P1;PMS_P2;Temp;Humidity;BMP_temperature;BMP_pressure;BME280_temperature;BME280_humidity;BME280_pressure;Samples;Min_cycle;Max_cycle;Signal;HPM_P1;HPM_P2
2022/06/24 00:01:58;;;;;;;16.58;9.65;;;25.00;99.90;;;;;;5110896;28;20086;-53
2022/06/24 00:04:26;;;;;;;13.75;10.02;;;24.70;99.90;;;;;;5110893;28;20036;-51
2022/06/24 00:06:52;;;;;;;14.38;10.88;;;24.60;99.90;;;;;;5110293;28;20036;-51
2022/06/24 00:09:18;;;;;;;19.58;10.82;;;24.50;99.90;;;;;;5131358;27;20389;-50
2022/06/24 00:11:45;;;;;;;18.42;11.23;;;24.60;99.90;;;;;;5131218;27;20032;-51
2022/06/24 00:14:13;;;;;;;17.38;11.00;;;24.50;99.90;;;;;;5131496;27;20123;-51
2022/06/24 00:17:09;;;;;;;14.93;10.93;;;24.60;99.90;;;;;;5131441;27;20486;-49
2022/06/24 00:19:52;;;;;;;18.40;11.65;;;24.60;99.90;;;;;;5096833;28;20044;-50
2022/06/24 00:22:17;;;;;;;18.55;12.00;;;24.50;99.90;;;;;;5110919;28;20039;-51
2022/06/24 00:24:44;;;;;;;17.33;11.30;;;24.50;99.90;;;;;;5110660;28;20044;-50
2022/06/24 00:27:22;;;;;;;16.67;11.48;;;24.30;99.90;;;;;;5110518;28;20063;-50
2022/06/24 00:29:49;;;;;;;16.73;11.45;;;24.30;99.90;;;;;;5110458;28;20036;-50
2022/06/24 00:32:16;;;;;;;18.50;11.27;;;24.20;99.90;;;;;;5109781;28;20040;-52
2022/06/24 00:34:42;;;;;;;19.50;11.25;;;24.30;99.90;;;;;;5110595;28;20482;-49
2022/06/24 00:37:25;;;;;;;17.05;11.93;;;24.20;99.90;;;;;;5110353;28;20032;-50
2022/06/24 00:39:53;;;;;;;18.53;11.87;;;24.20;99.90;;;;;;5110719;28;20467;-49
2022/06/24 00:42:20;;;;;;;19.92;11.50;;;24.10;99.90;;;;;;5110688;28;20039;-50
2022/06/24 00:45:07;;;;;;;16.33;11.43;;;24.20;99.90;;;;;;5110570;28;20482;-48
2022/06/24 00:47:35;;;;;;;16.92;11.43;;;24.10;99.90;;;;;;5110561;28;20098;-52
2022/06/24 00:50:11;;;;;;;20.75;11.02;;;24.00;99.90;;;;;;5092315;28;20074;-53
2022/06/24 00:52:38;;;;;;;17.45;10.73;;;24.10;99.90;;;;;;5090514;28;20044;-48
2022/06/24 00:55:04;;;;;;;16.35;10.63;;;24.00;99.90;;;;;;5110461;28;20413;-49
2022/06/24 00:57:36;;;;;;;16.10;11.02;;;23.90;99.90;;;;;;5110463;28;20378;-51
2022/06/24 01:00:03;;;;;;;15.68;11.20;;;24.00;99.90;;;;;;5110054;28;20143;-51
2022/06/24 01:02:32;;;;;;;17.05;10.90;;;23.90;99.90;;;;;;5110507;28;20110;-49
2022/06/24 01:05:05;;;;;;;17.98;10.93;;;23.90;99.90;;;;;;5110367;28;20036;-51
2022/06/24 01:07:35;;;;;;;18.55;11.70;;;23.90;99.90;;;;;;5110310;28;20376;-49
2022/06/24 01:10:00;;;;;;;17.85;11.52;;;23.80;99.90;;;;;;5109976;28;20044;-49
2022/06/24 01:12:26;;;;;;;19.30;11.32;;;23.80;99.90;;;;;;5091837;28;20044;-50
2022/06/24 01:14:52;;;;;;;15.40;11.02;;;23.70;99.90;;;;;;5110277;28;20395;-50
2022/06/24 01:17:17;;;;;;;15.82;11.48;;;23.70;99.90;;;;;;5111195;28;20074;-47
2022/06/24 01:19:43;;;;;;;16.27;11.40;;;23.80;99.90;;;;;;5114423;28;20038;-52
2022/06/24 01:22:09;;;;;;;20.17;12.10;;;23.80;99.90;;;;;;5113977;28;20074;-51
2022/06/24 01:24:34;;;;;;;20.98;13.90;;;23.90;99.90;;;;;;5114318;27;20039;-51
2022/06/24 01:27:01;;;;;;;18.83;13.23;;;23.60;99.90;;;;;;5113998;28;20522;-51
2022/06/24 01:29:27;;;;;;;19.45;15.85;;;23.20;99.90;;;;;;5113752;28;20047;-51
2022/06/24 01:31:53;;;;;;;24.73;14.90;;;23.00;99.90;;;;;;5113645;28;20394;-50
2022/06/24 01:34:21;;;;;;;18.20;14.45;;;23.00;99.90;;;;;;5114206;28;20533;-50
2022/06/24 01:36:47;;;;;;;22.25;14.85;;;23.00;99.90;;;;;;5114048;28;20126;-51
2022/06/24 01:39:13;;;;;;;21.73;15.68;;;23.00;99.90;;;;;;5113820;27;20032;-48
2022/06/24 01:41:39;;;;;;;26.00;15.60;;;23.00;99.90;;;;;;5113903;27;20127;-47
2022/06/24 01:44:05;;;;;;;22.80;16.08;;;22.90;99.90;;;;;;5112525;28;20449;-53
2022/06/24 01:46:31;;;;;;;20.33;16.20;;;23.00;99.90;;;;;;5113263;28;20084;-49
2022/06/24 01:48:57;;;;;;;21.75;16.05;;;23.20;99.90;;;;;;5113983;28;20111;-50
2022/06/24 01:51:24;;;;;;;20.08;15.65;;;22.90;99.90;;;;;;5113331;28;20443;-48
2022/06/24 01:53:50;;;;;;;19.05;15.55;;;22.80;99.90;;;;;;5113730;27;20038;-52
2022/06/24 01:56:15;;;;;;;21.92;16.60;;;22.80;99.90;;;;;;5113549;28;20031;-50
2022/06/24 01:58:41;;;;;;;21.10;16.85;;;22.80;99.90;;;;;;5113134;28;20027;-52
2022/06/24 02:01:07;;;;;;;20.98;16.80;;;22.70;99.90;;;;;;5113150;28;20130;-50
2022/06/24 02:03:38;;;;;;;24.85;18.90;;;22.80;99.90;;;;;;5113578;28;20145;-50
2022/06/24 02:06:06;;;;;;;25.00;18.33;;;22.70;99.90;;;;;;5113252;28;20031;-50
2022/06/24 02:08:32;;;;;;;19.95;16.55;;;22.70;99.90;;;;;;5113229;28;20248;-51
2022/06/24 02:13:44;;;;;;;20.70;17.25;;;22.60;99.90;;;;;;5112778;28;20040;-50
2022/06/24 02:16:11;;;;;;;21.90;17.90;;;22.60;99.90;;;;;;5113501;28;20114;-48
2022/06/24 02:18:37;;;;;;;22.98;18.23;;;22.50;99.90;;;;;;5113148;28;20174;-49
2022/06/24 02:21:03;;;;;;;26.00;18.60;;;22.60;99.90;;;;;;5113106;28;20584;-47
2022/06/24 02:23:30;;;;;;;22.30;17.48;;;22.50;99.90;;;;;;5113123;28;20120;-52
2022/06/24 02:25:56;;;;;;;21.52;17.95;;;22.40;99.90;;;;;;5113038;28;20039;-52
2022/06/24 02:28:22;;;;;;;26.05;18.40;;;22.50;99.90;;;;;;5112470;28;20040;-51
2022/06/24 02:30:52;;;;;;;24.75;18.80;;;22.50;99.90;;;;;;5112970;28;20510;-51
2022/06/24 02:33:18;;;;;;;25.90;18.35;;;22.30;99.90;;;;;;5112587;28;20035;-47
2022/06/24 02:35:43;;;;;;;23.63;18.13;;;22.40;99.90;;;;;;5112840;27;20046;-48
2022/06/24 02:38:09;;;;;;;23.60;18.63;;;22.40;99.90;;;;;;5094076;28;20044;-51
2022/06/24 02:40:51;;;;;;;23.75;18.40;;;22.50;99.90;;;;;;5112807;28;20110;-49
2022/06/24 02:43:24;;;;;;;23.05;18.75;;;22.50;99.90;;;;;;5112919;27;20038;-49
2022/06/24 02:45:56;;;;;;;21.95;17.92;;;22.70;99.90;;;;;;5112553;28;20039;-49
2022/06/24 02:48:22;;;;;;;21.70;17.75;;;22.70;99.90;;;;;;5112610;28;20453;-50
2022/06/24 02:50:54;;;;;;;24.38;18.70;;;22.70;99.90;;;;;;5112308;28;20042;-52
2022/06/24 02:53:21;;;;;;;23.52;20.00;;;22.60;99.90;;;;;;5112486;28;20491;-51
2022/06/24 02:55:51;;;;;;;27.50;20.08;;;22.30;99.90;;;;;;5112348;27;20421;-47
2022/06/24 02:58:17;;;;;;;27.58;20.35;;;22.20;99.90;;;;;;5111652;28;20036;-49
2022/06/24 03:00:43;;;;;;;25.17;19.38;;;22.10;99.90;;;;;;5094171;28;20050;-51
2022/06/24 03:03:11;;;;;;;23.50;18.60;;;22.10;99.90;;;;;;5112531;28;20035;-50
2022/06/24 03:05:37;;;;;;;22.33;17.20;;;22.00;99.90;;;;;;5111879;28;20074;-49
2022/06/24 03:08:03;;;;;;;23.13;19.25;;;21.80;99.90;;;;;;5112185;28;20370;-48
2022/06/24 03:10:29;;;;;;;25.80;19.55;;;21.80;99.90;;;;;;5112341;28;20040;-50
2022/06/24 03:12:54;;;;;;;25.73;18.77;;;21.70;99.90;;;;;;5112059;28;20396;-50
2022/06/24 03:15:20;;;;;;;19.90;16.92;;;21.70;99.90;;;;;;5112198;28;20027;-48
2022/06/24 03:17:46;;;;;;;22.02;15.90;;;21.70;99.90;;;;;;5111929;28;20093;-49
2022/06/24 03:20:12;;;;;;;21.10;14.48;;;21.70;99.90;;;;;;5111806;28;20398;-51
2022/06/24 03:22:38;;;;;;;20.98;13.07;;;21.60;99.90;;;;;;5111723;28;20039;-53
2022/06/24 03:25:05;;;;;;;16.73;12.43;;;21.50;99.90;;;;;;5110290;28;20051;-51
2022/06/24 03:27:31;;;;;;;13.20;10.70;;;21.50;99.90;;;;;;5111404;28;20068;-51
2022/06/24 03:29:57;;;;;;;13.98;9.95;;;21.30;99.90;;;;;;5109422;28;20043;-48
2022/06/24 03:32:23;;;;;;;15.82;9.50;;;21.20;99.90;;;;;;5111217;28;20039;-50
2022/06/24 03:34:49;;;;;;;11.55;7.90;;;21.20;99.90;;;;;;5111679;28;20497;-53
2022/06/24 03:37:14;;;;;;;10.20;7.38;;;21.10;99.90;;;;;;5111668;27;20028;-52
2022/06/24 03:39:40;;;;;;;11.48;6.60;;;21.10;99.90;;;;;;5110892;28;20509;-50
2022/06/24 03:42:06;;;;;;;9.02;5.75;;;20.90;99.90;;;;;;5111399;28;20039;-49
2022/06/24 03:44:32;;;;;;;7.60;5.03;;;20.90;99.90;;;;;;5110520;28;20479;-50
2022/06/24 03:46:57;;;;;;;9.68;4.80;;;20.80;99.90;;;;;;5092893;28;20031;-50
2022/06/24 03:49:23;;;;;;;8.50;5.28;;;20.70;99.90;;;;;;5092974;28;20036;-48
2022/06/24 03:51:49;;;;;;;7.88;4.90;;;20.70;99.90;;;;;;5111261;28;20039;-50
2022/06/24 03:54:15;;;;;;;8.48;5.70;;;20.80;99.90;;;;;;5111202;28;20035;-52
2022/06/24 03:56:41;;;;;;;9.02;5.22;;;20.70;99.90;;;;;;5111299;28;20031;-50
2022/06/24 03:59:07;;;;;;;7.97;5.47;;;20.80;99.90;;;;;;5110070;28;20068;-52
2022/06/24 04:01:32;;;;;;;7.28;4.53;;;20.80;99.90;;;;;;5131053;27;20051;-51
2022/06/24 04:03:58;;;;;;;10.48;4.65;;;20.60;99.90;;;;;;5111127;28;20035;-51
2022/06/24 04:06:24;;;;;;;6.32;3.88;;;20.60;99.90;;;;;;5092657;28;20075;-50
2022/06/24 04:08:51;;;;;;;7.13;3.83;;;20.60;99.90;;;;;;5111129;28;20047;-51
2022/06/24 04:11:17;;;;;;;6.53;3.88;;;20.50;99.90;;;;;;5109663;28;20051;-50
2022/06/24 04:13:43;;;;;;;5.90;3.60;;;20.40;99.90;;;;;;5111050;28;20031;-50
2022/06/24 04:16:10;;;;;;;6.88;4.03;;;20.40;99.90;;;;;;5111192;28;20510;-50
2022/06/24 04:18:36;;;;;;;6.82;4.07;;;20.40;99.90;;;;;;5109335;28;20035;-50
2022/06/24 04:21:02;;;;;;;6.30;4.05;;;20.40;99.90;;;;;;5092467;28;20039;-51
2022/06/24 04:23:28;;;;;;;7.63;4.85;;;20.50;99.90;;;;;;5110345;28;20162;-50
2022/06/24 04:25:54;;;;;;;8.05;5.28;;;20.40;99.90;;;;;;5110878;27;20119;-48
2022/06/24 04:28:20;;;;;;;8.23;5.50;;;20.40;99.90;;;;;;5110197;28;20036;-52
2022/06/24 04:30:46;;;;;;;9.43;5.93;;;20.40;99.90;;;;;;5123273;27;20125;-51
2022/06/24 04:33:12;;;;;;;9.40;6.32;;;20.50;99.90;;;;;;5110366;28;20043;-52
2022/06/24 04:35:39;;;;;;;8.07;5.75;;;20.50;99.90;;;;;;5110446;28;20491;-52
2022/06/24 04:38:05;;;;;;;8.57;6.43;;;20.50;99.90;;;;;;5107341;27;20043;-49
2022/06/24 04:40:31;;;;;;;9.82;7.10;;;20.40;99.90;;;;;;5131316;27;20039;-51
2022/06/24 04:42:56;;;;;;;8.80;6.50;;;20.60;99.90;;;;;;5131027;27;20062;-52
2022/06/24 04:45:22;;;;;;;10.77;7.18;;;20.70;99.90;;;;;;5131093;27;20390;-50
2022/06/24 04:47:48;;;;;;;9.93;6.43;;;20.70;99.90;;;;;;5130844;28;20492;-52
2022/06/24 04:50:14;;;;;;;9.65;6.82;;;20.80;99.90;;;;;;5131156;28;20111;-50
2022/06/24 04:52:40;;;;;;;11.80;7.03;;;20.70;99.90;;;;;;5132393;27;20047;-51
2022/06/24 04:55:07;;;;;;;9.65;6.45;;;20.90;99.90;;;;;;5129602;27;20085;-48
2022/06/24 04:57:33;;;;;;;11.00;7.18;;;20.90;99.90;;;;;;5114454;28;20039;-50
2022/06/24 04:59:59;;;;;;;8.77;6.25;;;21.00;99.90;;;;;;5114100;28;20483;-51
2022/06/24 05:02:25;;;;;;;9.77;7.05;;;21.00;99.90;;;;;;5114623;28;20123;-51
2022/06/24 05:04:50;;;;;;;10.15;6.20;;;21.00;99.90;;;;;;5114459;28;20109;-51
2022/06/24 05:07:16;;;;;;;9.05;6.53;;;20.90;99.90;;;;;;5114704;28;20035;-51
2022/06/24 05:09:42;;;;;;;9.52;6.78;;;21.00;99.90;;;;;;5114107;28;20592;-51
2022/06/24 05:12:09;;;;;;;8.68;5.88;;;20.90;99.90;;;;;;5114276;28;20509;-50
2022/06/24 05:14:35;;;;;;;8.10;6.00;;;20.90;99.90;;;;;;5114592;28;20084;-50
2022/06/24 05:17:01;;;;;;;9.18;6.57;;;20.90;99.90;;;;;;5114534;28;20467;-48
2022/06/24 05:19:27;;;;;;;9.35;6.28;;;20.90;99.90;;;;;;5114400;28;20038;-50
2022/06/24 05:21:53;;;;;;;8.80;5.78;;;20.80;99.90;;;;;;5113849;28;20039;-48
2022/06/24 05:24:19;;;;;;;9.80;5.30;;;20.90;99.90;;;;;;5114368;28;20046;-49
2022/06/24 05:26:45;;;;;;;8.48;5.18;;;20.90;99.90;;;;;;5114303;28;20476;-50
2022/06/24 05:29:11;;;;;;;6.43;4.57;;;20.80;99.90;;;;;;5113918;28;20043;-50
2022/06/24 05:31:38;;;;;;;7.53;5.00;;;20.90;99.90;;;;;;5114194;28;20474;-50
2022/06/24 05:34:03;;;;;;;7.68;4.68;;;20.90;99.90;;;;;;5114058;28;20039;-50
2022/06/24 05:36:30;;;;;;;5.97;4.32;;;20.80;99.90;;;;;;5114018;28;20068;-49
2022/06/24 05:38:55;;;;;;;9.98;4.40;;;20.70;99.90;;;;;;5114053;28;20605;-52
2022/06/24 05:41:22;;;;;;;9.10;5.18;;;20.60;99.90;;;;;;5113891;28;20503;-50
2022/06/24 05:43:47;;;;;;;9.40;5.28;;;20.70;99.90;;;;;;5113829;28;20391;-47
2022/06/24 05:46:13;;;;;;;11.25;5.15;;;20.80;99.90;;;;;;5113798;28;20465;-52
2022/06/24 05:48:40;;;;;;;10.25;4.85;;;20.80;99.90;;;;;;5113618;28;20039;-47
2022/06/24 05:51:15;;;;;;;9.98;5.13;;;20.70;99.90;;;;;;5113652;28;20096;-50
2022/06/24 05:56:28;;;;;;;10.18;5.22;;;20.70;99.90;;;;;;5113391;27;20071;-52
2022/06/24 05:58:54;;;;;;;8.32;5.25;;;20.60;99.90;;;;;;5113090;28;20100;-52
2022/06/24 06:01:20;;;;;;;7.53;4.70;;;20.60;99.90;;;;;;5113663;27;20425;-47
2022/06/24 06:03:47;;;;;;;8.45;4.88;;;20.50;99.90;;;;;;5113199;28;20465;-49
2022/06/24 06:06:13;;;;;;;7.55;4.90;;;20.60;99.90;;;;;;5113339;28;20047;-50
2022/06/24 06:08:39;;;;;;;7.60;5.00;;;20.70;99.90;;;;;;5113598;28;20031;-49
2022/06/24 06:11:17;;;;;;;9.23;4.97;;;20.50;99.90;;;;;;5122839;27;20464;-47
2022/06/24 06:13:44;;;;;;;9.68;5.45;;;20.60;99.90;;;;;;5133554;27;20036;-48
2022/06/24 06:16:10;;;;;;;11.10;6.05;;;20.50;99.90;;;;;;5133296;27;20073;-50
2022/06/24 06:18:37;;;;;;;8.05;5.55;;;20.60;99.90;;;;;;5133585;27;20031;-50
2022/06/24 06:21:05;;;;;;;8.88;5.30;;;20.50;99.90;;;;;;5132862;27;20130;-47
2022/06/24 06:23:31;;;;;;;9.30;6.10;;;20.50;99.90;;;;;;5132675;27;20380;-49
2022/06/24 06:25:57;;;;;;;9.13;5.38;;;20.50;99.90;;;;;;5133505;27;20031;-49
2022/06/24 06:28:23;;;;;;;8.23;5.43;;;20.50;99.90;;;;;;5123976;27;20035;-51
2022/06/24 06:30:49;;;;;;;9.18;6.20;;;20.40;99.90;;;;;;5112855;28;20036;-50
2022/06/24 06:33:14;;;;;;;7.90;5.63;;;20.40;99.90;;;;;;5112810;28;20417;-52
2022/06/24 06:35:40;;;;;;;9.88;5.97;;;20.60;99.90;;;;;;5112908;28;20035;-51
2022/06/24 06:38:06;;;;;;;9.15;5.88;;;20.60;99.90;;;;;;5111567;28;20039;-49
2022/06/24 06:40:36;;;;;;;7.35;5.65;;;20.60;99.90;;;;;;5112456;28;20035;-49
2022/06/24 06:43:02;;;;;;;9.32;6.10;;;20.60;99.90;;;;;;5112419;28;20074;-49
2022/06/24 06:45:28;;;;;;;8.10;5.82;;;20.70;99.90;;;;;;5112765;27;20092;-49
2022/06/24 06:47:54;;;;;;;9.57;5.70;;;20.60;99.90;;;;;;5112704;28;20501;-52
2022/06/24 06:50:20;;;;;;;9.88;6.07;;;20.60;99.90;;;;;;5112537;28;20074;-48
2022/06/24 06:52:46;;;;;;;9.60;5.82;;;20.60;99.90;;;;;;5112415;28;20101;-52
2022/06/24 06:55:11;;;;;;;9.38;5.88;;;20.50;99.90;;;;;;5112277;28;20039;-50
2022/06/24 06:57:37;;;;;;;8.32;5.82;;;20.50;99.90;;;;;;5110809;28;20043;-49
2022/06/24 07:00:05;;;;;;;9.30;5.82;;;20.50;99.90;;;;;;5109630;28;20167;-50
2022/06/24 07:02:30;;;;;;;8.20;6.28;;;20.60;99.90;;;;;;5111554;28;20055;-51
2022/06/24 07:04:56;;;;;;;8.98;5.75;;;20.50;99.90;;;;;;5103792;27;20031;-52
2022/06/24 07:07:22;;;;;;;11.20;6.00;;;20.50;99.90;;;;;;5132460;27;20066;-48
2022/06/24 07:09:47;;;;;;;8.40;5.80;;;20.50;99.90;;;;;;5113888;27;20035;-48
2022/06/24 07:12:13;;;;;;;10.82;5.65;;;20.60;99.90;;;;;;5111197;28;20113;-50
2022/06/24 07:14:42;;;;;;;9.50;5.47;;;20.60;99.90;;;;;;5109680;28;20379;-48
2022/06/24 07:17:09;;;;;;;7.13;5.47;;;20.60;99.90;;;;;;5101565;27;20422;-49
2022/06/24 07:19:35;;;;;;;6.93;4.55;;;20.60;99.90;;;;;;5099658;28;20031;-48
2022/06/24 07:22:02;;;;;;;7.47;4.80;;;20.60;99.90;;;;;;5078355;28;20063;-50
2022/06/24 07:24:28;;;;;;;8.07;4.80;;;20.60;99.90;;;;;;5082431;28;20047;-50
2022/06/24 07:26:53;;;;;;;9.27;5.13;;;20.60;99.90;;;;;;5099285;28;20032;-49
2022/06/24 07:29:19;;;;;;;8.35;4.65;;;20.60;99.90;;;;;;5079651;28;20042;-49
2022/06/24 07:31:47;;;;;;;8.60;5.22;;;20.60;99.90;;;;;;5093921;28;20043;-50
2022/06/24 07:34:14;;;;;;;8.60;4.88;;;20.60;99.90;;;;;;5090712;28;20140;-50
2022/06/24 07:36:41;;;;;;;7.88;4.40;;;20.60;99.90;;;;;;5098722;27;20391;-49
2022/06/24 07:39:06;;;;;;;7.43;5.03;;;20.60;99.90;;;;;;5099048;28;20032;-51
2022/06/24 07:41:32;;;;;;;8.98;5.22;;;20.50;99.90;;;;;;5098658;28;20046;-50
2022/06/24 07:43:58;;;;;;;8.20;5.30;;;20.60;99.90;;;;;;5095037;28;20040;-50
2022/06/24 07:46:24;;;;;;;6.88;5.07;;;20.70;99.90;;;;;;5097294;28;20390;-51
2022/06/24 07:48:49;;;;;;;8.95;5.18;;;20.70;99.90;;;;;;5096582;28;20051;-48
2022/06/24 07:51:16;;;;;;;8.85;5.40;;;20.70;99.90;;;;;;5096803;28;20046;-49
2022/06/24 07:53:44;;;;;;;9.20;5.40;;;20.70;99.90;;;;;;5096154;28;20062;-48
2022/06/24 07:58:53;;;;;;;9.00;5.28;;;20.70;99.90;;;;;;5095532;28;20047;-49
2022/06/24 08:01:19;;;;;;;8.13;5.00;;;20.70;99.90;;;;;;5097049;28;20040;-47
2022/06/24 08:03:45;;;;;;;8.52;4.70;;;20.60;99.90;;;;;;5096139;27;20447;-47
2022/06/24 08:06:12;;;;;;;8.35;4.40;;;20.40;99.90;;;;;;5089635;28;20514;-47
2022/06/24 08:08:38;;;;;;;7.18;4.05;;;20.40;99.90;;;;;;5076569;28;20120;-49
2022/06/24 08:11:04;;;;;;;8.18;4.22;;;20.30;99.90;;;;;;5096373;28;20054;-53
2022/06/24 08:13:30;;;;;;;8.10;4.85;;;20.40;99.90;;;;;;5095326;28;20386;-48
2022/06/24 08:15:56;;;;;;;13.43;6.28;;;20.40;99.90;;;;;;5094581;28;20072;-50
2022/06/24 08:18:22;;;;;;;12.02;5.38;;;20.40;99.90;;;;;;5094774;28;20036;-49
2022/06/24 08:20:48;;;;;;;14.32;6.07;;;20.10;99.90;;;;;;5096636;28;20028;-49
2022/06/24 08:23:14;;;;;;;14.38;5.97;;;20.00;99.90;;;;;;5096165;28;20031;-46
2022/06/24 08:25:40;;;;;;;13.65;6.75;;;19.90;99.90;;;;;;5096597;28;20032;-46
2022/06/24 08:28:06;;;;;;;11.43;6.43;;;19.60;99.90;;;;;;5095776;28;20074;-46
2022/06/24 08:30:31;;;;;;;11.60;5.75;;;19.60;99.90;;;;;;5094813;27;20509;-47
2022/06/24 08:32:57;;;;;;;9.52;3.95;;;19.70;99.90;;;;;;5095971;27;20091;-48
2022/06/24 08:35:23;;;;;;;9.25;3.70;;;19.40;99.90;;;;;;5096661;28;20031;-46
2022/06/24 08:37:49;;;;;;;6.07;2.80;;;19.40;99.90;;;;;;5094610;28;20139;-47
2022/06/24 08:40:16;;;;;;;6.38;3.00;;;19.30;99.90;;;;;;5093209;28;20048;-47
2022/06/24 08:42:44;;;;;;;5.65;2.60;;;19.20;99.90;;;;;;5093380;28;20052;-49
2022/06/24 08:45:13;;;;;;;6.18;2.60;;;19.10;99.90;;;;;;5091220;28;20040;-46
2022/06/24 08:47:39;;;;;;;5.43;2.40;;;19.00;99.90;;;;;;5093946;28;20874;-47
2022/06/24 08:50:09;;;;;;;5.93;2.63;;;19.00;99.90;;;;;;5094418;28;20126;-47
2022/06/24 08:52:35;;;;;;;4.68;3.00;;;18.90;99.90;;;;;;5093314;28;20043;-47
2022/06/24 08:55:04;;;;;;;5.65;3.38;;;19.00;99.90;;;;;;5094593;28;20097;-46
2022/06/24 08:57:31;;;;;;;6.55;3.40;;;19.10;99.90;;;;;;5093928;28;20023;-47
2022/06/24 08:59:57;;;;;;;10.43;4.07;;;19.40;99.90;;;;;;5075733;28;20470;-47
2022/06/24 09:02:23;;;;;;;10.32;4.18;;;19.20;99.90;;;;;;5093528;28;20044;-47
2022/06/24 09:04:49;;;;;;;7.45;4.53;;;19.50;99.90;;;;;;5074326;28;20044;-46
2022/06/24 09:07:26;;;;;;;7.35;4.63;;;19.60;99.90;;;;;;5094306;28;20063;-47
2022/06/24 09:10:04;;;;;;;9.63;4.80;;;19.70;99.90;;;;;;5094376;28;20038;-46
2022/06/24 09:12:54;;;;;;;8.57;5.07;;;19.70;99.90;;;;;;5092246;28;20054;-45
2022/06/24 09:15:21;;;;;;;8.48;5.05;;;19.50;99.90;;;;;;5095033;28;20039;-50
2022/06/24 09:17:48;;;;;;;9.38;5.35;;;19.50;99.90;;;;;;5094116;28;20123;-48
2022/06/24 09:20:21;;;;;;;7.60;5.47;;;19.50;99.90;;;;;;5095323;28;20995;-47
2022/06/24 09:22:48;;;;;;;7.80;4.78;;;19.60;99.90;;;;;;5057921;28;20039;-49
2022/06/24 09:25:14;;;;;;;6.20;3.85;;;19.60;99.90;;;;;;5091808;28;20058;-48
2022/06/24 09:27:45;;;;;;;5.53;3.10;;;19.70;99.90;;;;;;5093588;28;20040;-51
2022/06/24 09:30:17;;;;;;;6.05;3.17;;;19.60;99.90;;;;;;5075850;28;20470;-47
2022/06/24 09:32:54;;;;;;;4.30;2.80;;;19.70;99.90;;;;;;5089742;28;20048;-47
2022/06/24 09:35:22;;;;;;;5.47;2.97;;;19.60;99.90;;;;;;5093919;28;20035;-47
2022/06/24 09:37:49;;;;;;;6.28;2.97;;;19.70;99.90;;;;;;5094365;28;20032;-48
2022/06/24 09:40:20;;;;;;;4.22;2.78;;;19.80;99.90;;;;;;5102461;27;20443;-48
2022/06/24 09:42:56;;;;;;;5.88;2.83;;;19.60;99.90;;;;;;5101229;27;20066;-51
2022/06/24 09:45:23;;;;;;;5.97;3.53;;;19.70;99.90;;;;;;5102253;28;20515;-49
2022/06/24 09:47:50;;;;;;;7.20;3.88;;;19.70;99.90;;;;;;5101489;27;20068;-47
2022/06/24 09:50:18;;;;;;;6.53;4.28;;;19.60;99.90;;;;;;5109355;28;20043;-49
2022/06/24 09:52:44;;;;;;;7.70;4.38;;;19.70;99.90;;;;;;5113995;27;20082;-49
2022/06/24 09:55:11;;;;;;;7.35;4.55;;;19.90;99.90;;;;;;5115556;27;20389;-48
2022/06/24 09:57:38;;;;;;;8.13;4.63;;;19.80;99.90;;;;;;5125926;27;20481;-46
2022/06/24 10:02:50;;;;;;;7.25;4.60;;;20.00;99.90;;;;;;5115958;27;20417;-49
2022/06/24 10:05:18;;;;;;;8.10;4.53;;;19.80;99.90;;;;;;5113486;28;20543;-48
2022/06/24 10:07:48;;;;;;;6.80;4.85;;;20.00;99.90;;;;;;5113251;28;20058;-49
2022/06/24 10:10:15;;;;;;;8.23;4.97;;;19.90;99.90;;;;;;5113664;28;20489;-51
2022/06/24 10:12:47;;;;;;;7.30;4.90;;;20.00;99.90;;;;;;5113045;28;20035;-49
2022/06/24 10:15:16;;;;;;;7.10;4.80;;;20.10;99.90;;;;;;5113579;28;20497;-48
2022/06/24 10:17:44;;;;;;;6.78;4.90;;;20.10;99.90;;;;;;5113150;28;20035;-46
2022/06/24 10:20:14;;;;;;;8.10;5.80;;;20.30;99.90;;;;;;5113021;28;20039;-46
2022/06/24 10:22:46;;;;;;;9.13;4.75;;;20.30;99.90;;;;;;5112795;28;20107;-49
2022/06/24 10:25:42;;;;;;;6.32;5.30;;;20.20;99.90;;;;;;5094957;28;20039;-50
2022/06/24 10:28:08;;;;;;;8.10;5.40;;;20.30;99.90;;;;;;5112671;28;20039;-50
2022/06/24 10:30:39;;;;;;;7.35;5.43;;;20.50;99.90;;;;;;5112815;28;20039;-49
2022/06/24 10:33:16;;;;;;;6.93;5.20;;;20.50;99.90;;;;;;5112999;27;20052;-49
2022/06/24 10:36:05;;;;;;;8.27;6.05;;;20.40;99.90;;;;;;5106569;28;20044;-47
2022/06/24 10:38:39;;;;;;;8.73;5.70;;;20.20;99.90;;;;;;5113740;27;20038;-47
2022/06/24 10:41:09;;;;;;;9.00;6.30;;;20.20;99.90;;;;;;5109453;28;20498;-49
2022/06/24 10:43:42;;;;;;;9.23;6.85;;;20.20;99.90;;;;;;5112431;28;20040;-49
2022/06/24 10:46:11;;;;;;;9.25;6.90;;;20.40;99.90;;;;;;5099777;27;20963;-47
2022/06/24 10:48:52;;;;;;;9.98;7.25;;;20.40;99.90;;;;;;5101742;28;20554;-47
2022/06/24 10:51:19;;;;;;;10.32;7.85;;;20.50;99.90;;;;;;5096793;27;20039;-47
2022/06/24 10:54:14;;;;;;;11.65;8.32;;;20.50;99.90;;;;;;5101703;27;20042;-49
2022/06/24 10:56:44;;;;;;;10.75;9.05;;;20.40;99.90;;;;;;5087207;28;20056;-48
2022/06/24 10:59:10;;;;;;;11.73;8.43;;;20.60;99.90;;;;;;5095963;28;20100;-46
2022/06/24 11:01:40;;;;;;;11.75;9.13;;;20.40;99.90;;;;;;5105634;28;20497;-49
2022/06/24 11:04:10;;;;;;;15.13;8.88;;;20.40;99.90;;;;;;5103319;27;20390;-51
2022/06/24 11:06:36;;;;;;;10.65;8.55;;;20.40;99.90;;;;;;5107496;28;20036;-48
2022/06/24 11:09:06;;;;;;;13.35;9.02;;;20.60;99.90;;;;;;5104082;27;20043;-47
2022/06/24 11:11:33;;;;;;;12.98;9.35;;;20.80;99.90;;;;;;5106233;28;20043;-46
2022/06/24 11:13:59;;;;;;;11.85;9.68;;;21.00;99.90;;;;;;5107160;27;20122;-48
2022/06/24 11:16:28;;;;;;;14.15;10.32;;;21.20;99.90;;;;;;5104304;28;20039;-47
2022/06/24 11:18:54;;;;;;;12.40;9.55;;;21.40;99.90;;;;;;5106045;28;20084;-48
2022/06/24 11:21:20;;;;;;;12.23;9.60;;;21.50;99.90;;;;;;5102179;28;20067;-51
2022/06/24 11:23:47;;;;;;;11.18;9.82;;;21.70;99.90;;;;;;5088512;28;20132;-47
2022/06/24 11:26:18;;;;;;;12.25;10.27;;;21.80;99.90;;;;;;5106819;27;20074;-48
2022/06/24 11:28:52;;;;;;;12.77;10.13;;;21.90;99.90;;;;;;5101333;28;20074;-50
2022/06/24 11:31:28;;;;;;;11.60;9.93;;;21.70;99.90;;;;;;5105558;28;20363;-47
2022/06/24 11:34:03;;;;;;;13.07;10.82;;;21.90;99.90;;;;;;5103924;27;20036;-49
2022/06/24 11:36:31;;;;;;;13.35;10.05;;;21.90;99.90;;;;;;5103740;28;20108;-48
2022/06/24 11:38:58;;;;;;;12.45;9.82;;;21.90;99.90;;;;;;5105551;28;20040;-47
2022/06/24 11:41:27;;;;;;;14.93;10.68;;;22.10;99.90;;;;;;5102827;28;20168;-47
2022/06/24 11:43:53;;;;;;;11.88;10.50;;;22.20;99.90;;;;;;5087537;27;20135;-51
2022/06/24 11:46:19;;;;;;;11.63;10.15;;;22.20;99.90;;;;;;5087231;28;20031;-46
2022/06/24 11:48:44;;;;;;;11.75;10.00;;;22.20;99.90;;;;;;5104724;27;20046;-47
2022/06/24 11:51:21;;;;;;;12.90;10.80;;;22.30;99.90;;;;;;5106531;28;20470;-47
2022/06/24 11:54:02;;;;;;;11.82;10.55;;;22.30;99.90;;;;;;5100823;28;20050;-47
2022/06/24 11:56:31;;;;;;;12.77;10.25;;;22.30;99.90;;;;;;5105610;27;20142;-48
2022/06/24 11:59:01;;;;;;;11.32;9.68;;;22.40;99.90;;;;;;5107464;28;20039;-49
2022/06/24 12:01:28;;;;;;;12.23;10.93;;;22.50;99.90;;;;;;5107749;27;20522;-51
2022/06/24 12:03:57;;;;;;;13.55;10.80;;;22.90;99.90;;;;;;5108487;28;20060;-48
2022/06/24 12:06:23;;;;;;;13.20;10.60;;;22.90;99.90;;;;;;5110224;28;20452;-51
2022/06/24 12:08:51;;;;;;;13.38;10.50;;;22.90;99.90;;;;;;5109995;28;20091;-49
2022/06/24 12:11:20;;;;;;;13.70;12.20;;;22.60;99.90;;;;;;5109281;28;20042;-48
2022/06/24 12:13:59;;;;;;;12.35;10.80;;;22.80;99.90;;;;;;5107936;28;20036;-49
2022/06/24 12:16:48;;;;;;;14.18;10.70;;;22.80;99.90;;;;;;5108891;28;20042;-48
2022/06/24 12:19:14;;;;;;;13.23;11.82;;;22.80;99.90;;;;;;5111980;27;20459;-50
2022/06/24 12:21:40;;;;;;;13.55;11.77;;;22.80;99.90;;;;;;5112110;27;20039;-48
2022/06/24 12:24:20;;;;;;;15.15;13.25;;;22.80;99.90;;;;;;5109971;28;20387;-48
2022/06/24 12:26:46;;;;;;;14.10;11.90;;;22.70;99.90;;;;;;5109653;28;20531;-51
2022/06/24 12:29:12;;;;;;;16.00;12.18;;;22.60;99.90;;;;;;5091885;28;20035;-50
2022/06/24 12:31:38;;;;;;;15.20;12.93;;;22.80;99.90;;;;;;5109983;28;20489;-50
2022/06/24 12:34:04;;;;;;;14.80;13.30;;;22.80;99.90;;;;;;5122957;27;20043;-48
2022/06/24 12:36:41;;;;;;;14.13;12.55;;;22.80;99.90;;;;;;5130696;27;20035;-49
2022/06/24 12:39:09;;;;;;;15.80;12.88;;;22.90;99.90;;;;;;5113252;28;20031;-48
2022/06/24 12:41:47;;;;;;;14.70;12.85;;;22.90;99.90;;;;;;5110759;28;20071;-50
2022/06/24 12:44:13;;;;;;;16.58;14.80;;;23.10;99.90;;;;;;5108826;28;20070;-50
2022/06/24 12:52:39;;;;;;;19.98;17.88;;;23.50;99.90;;;;;;5123280;28;20046;-50
2022/06/24 12:55:12;;;;;;;24.52;18.20;;;23.80;99.90;;;;;;5130669;28;20092;-50
2022/06/24 12:57:38;;;;;;;21.35;19.10;;;23.80;99.90;;;;;;5130917;28;20063;-47
2022/06/24 13:00:08;;;;;;;20.05;17.92;;;23.90;99.90;;;;;;5119255;28;20479;-48